Galicia — ECEC — position and weather

sailwx.info

Track history (hours):
 
Tides and Currents Weather Stations Pressure Air Temp Water Temp Dewpoint Dewpoint Depression Visibility Wind Speed Wind Dir Waves Ship Positions

Galicia

Last reported at 2015-Aug-02 11:33 UTC. Time now 2015-Aug-02 12:23 UTC.
Position N 28°09' W 015°25'.

Length 149 m; draft 5.8 m.

Type: Cargo ship. MMSI: 224548000.

Date/timePositionNaut miles runAvg speedWind from/ knotsBaromVisibWave heightAir tempDewpointWater temp
2015-Aug-02 11:33N 28°09' W 015°25'0 0.0
2015-Aug-02 10:33N 28°09' W 015°25'0 0.0
2015-Aug-02 09:33N 28°09' W 015°25'0 0.0
2015-Aug-02 08:33N 28°09' W 015°25'0 0.0
2015-Aug-02 07:33N 28°09' W 015°25'0 0.0
2015-Aug-02 06:34N 28°09' W 015°25'3 2.9
2015-Aug-02 05:33N 28°08' W 015°22'9 8.8
2015-Aug-02 04:33N 28°14' W 015°15'9 9.2
2015-Aug-02 03:33N 28°20' W 015°07'9 9.3
2015-Aug-02 02:33N 28°26' W 014°59'10 9.8
2015-Aug-02 01:33N 28°32' W 014°51'10 9.8
2015-Aug-02 00:33N 28°39' W 014°42'  
2015-Jul-30 10:32N 38°06' W 009°60'1615.9
2015-Jul-30 09:33N 38°22' W 010°03'1615.7
2015-Jul-30 08:33N 38°37' W 010°06'1615.7
2015-Jul-30 07:33N 38°53' W 010°06'1616.1
2015-Jul-30 06:33N 39°09' W 010°02'  
2015-Jul-27 07:33N 50°35' E 000°24'1212.2
2015-Jul-27 06:33N 50°41' E 000°41'1212.3
2015-Jul-27 05:33N 50°48' E 000°57'1412.5
2015-Jul-27 04:28N 50°57' E 001°13'1213.2
2015-Jul-27 03:33N 51°05' E 001°28'1413.8
2015-Jul-27 02:33N 51°13' E 001°45'1413.7
2015-Jul-27 01:33N 51°26' E 001°55'1412.4
2015-Jul-27 00:26N 51°20' E 002°15'1112.8
2015-Jul-26 23:33N 51°23' E 002°33'1211.7
2015-Jul-26 22:34N 51°22' E 002°51'1312.9
2015-Jul-26 21:34N 51°22' E 003°12'3 3.2
2015-Jul-26 20:31N 51°19' E 003°14'0 0.0
2015-Jul-26 19:28N 51°19' E 003°14'0 0.0
2015-Jul-26 18:31N 51°19' E 003°14'0 0.0
2015-Jul-26 17:31N 51°19' E 003°14'0 0.0
2015-Jul-26 16:31N 51°19' E 003°14'0 0.0
2015-Jul-26 15:31N 51°19' E 003°14'0 0.0
2015-Jul-26 14:31N 51°19' E 003°14'0 0.0
2015-Jul-26 13:31N 51°19' E 003°14'0 0.0
2015-Jul-26 12:31N 51°19' E 003°14'0 0.0
2015-Jul-26 11:31N 51°19' E 003°14'0 0.0
2015-Jul-26 10:31N 51°19' E 003°14'0 0.3
2015-Jul-26 09:33N 51°19' E 003°14'2 1.6
2015-Jul-26 08:34N 51°20' E 003°13'1211.6
2015-Jul-26 07:34N 51°22' E 002°55'1010.3
2015-Jul-26 06:33N 51°29' E 002°42'13613.6
2015-Jul-25 20:31N 53°26' E 004°37'1313.8
2015-Jul-25 19:33N 53°32' E 004°57'1413.8
2015-Jul-25 18:33N 53°37' E 005°19'1313.4
2015-Jul-25 17:33N 53°41' E 005°40'1313.2
2015-Jul-25 16:32N 53°45' E 006°02'12 9.9
2015-Jul-25 15:20N 53°39' E 006°19'1011.9
2015-Jul-25 14:31N 53°36' E 006°34'1313.5
2015-Jul-25 13:33N 53°28' E 006°51'1211.7
2015-Jul-25 12:33N 53°20' E 007°05'3 1.7
2015-Jul-25 10:28N 53°20' E 007°11'0 0.0
2015-Jul-25 08:25N 53°20' E 007°11'0 0.0
2015-Jul-25 07:25N 53°20' E 007°11'0 0.0
2015-Jul-25 06:22N 53°20' E 007°11'0 0.0
2015-Jul-25 04:28N 53°20' E 007°11'0 0.0
2015-Jul-25 03:31N 53°20' E 007°11'0 0.0
2015-Jul-25 02:31N 53°20' E 007°11'0 0.0
2015-Jul-25 01:28N 53°20' E 007°11'0 0.0
2015-Jul-25 00:31N 53°20' E 007°11'0 0.0
2015-Jul-24 23:31N 53°20' E 007°11'0 0.0
2015-Jul-24 22:34N 53°20' E 007°11'0 0.0
2015-Jul-24 21:33N 53°20' E 007°11'6 5.8
2015-Jul-24 20:33N 53°19' E 007°01'1212.3
2015-Jul-24 19:33N 53°29' E 006°49'1212.4
2015-Jul-24 18:33N 53°37' E 006°32'1312.7
2015-Jul-24 17:33N 53°38' E 006°11'1313.0
2015-Jul-24 16:33N 53°37' E 005°49'9 8.8
2015-Jul-24 15:33N 53°35' E 005°35'9 8.8
2015-Jul-24 14:33N 53°32' E 005°21'9 9.3
2015-Jul-24 13:33N 53°29' E 005°06'10 9.7
2015-Jul-24 12:33N 53°25' E 004°51'10 9.7
2015-Jul-24 11:31N 53°19' E 004°38'2010.4
2015-Jul-24 09:33N 53°01' E 004°22'1110.7
2015-Jul-24 08:33N 52°51' E 004°15'1010.4
2015-Jul-24 07:33N 52°43' E 004°04'1010.4
2015-Jul-24 06:33N 52°35' E 003°52'1010.2
2015-Jul-24 05:33N 52°28' E 003°40'10 9.7
2015-Jul-24 04:33N 52°21' E 003°30'9 9.2
2015-Jul-24 03:32N 52°14' E 003°19'48 8.7
2015-Jul-23 22:04N 51°39' E 002°27'5 9.6
2015-Jul-23 21:32N 51°35' E 002°21'1010.0
2015-Jul-23 20:33N 51°28' E 002°11'1010.1
2015-Jul-23 19:33N 51°18' E 002°06'1010.2
2015-Jul-23 18:33N 51°11' E 001°55'1111.3
2015-Jul-23 17:33N 51°03' E 001°42'  
Track history (hours):
 
Tides and Currents Weather Stations Pressure Air Temp Water Temp Dewpoint Dewpoint Depression Visibility Wind Speed Wind Dir Waves Ship Positions

Galicia

Last reported at 2015-Aug-02 11:33 UTC. Time now 2015-Aug-02 12:23 UTC.
Position N 28°09' W 015°25'.

Length 149 m; draft 5.8 m.

Type: Cargo ship. MMSI: 224548000.

Date/timePositionNaut miles runAvg speedWind from/ knotsBaromVisibWave heightAir tempDewpointWater temp
2015-Aug-02 11:33N 28°09' W 015°25'0 0.0
2015-Aug-02 10:33N 28°09' W 015°25'0 0.0
2015-Aug-02 09:33N 28°09' W 015°25'0 0.0
2015-Aug-02 08:33N 28°09' W 015°25'0 0.0
2015-Aug-02 07:33N 28°09' W 015°25'0 0.0
2015-Aug-02 06:34N 28°09' W 015°25'3 2.9
2015-Aug-02 05:33N 28°08' W 015°22'9 8.8
2015-Aug-02 04:33N 28°14' W 015°15'9 9.2
2015-Aug-02 03:33N 28°20' W 015°07'9 9.3
2015-Aug-02 02:33N 28°26' W 014°59'10 9.8
2015-Aug-02 01:33N 28°32' W 014°51'10 9.8
2015-Aug-02 00:33N 28°39' W 014°42'  
2015-Jul-30 10:32N 38°06' W 009°60'1615.9
2015-Jul-30 09:33N 38°22' W 010°03'1615.7
2015-Jul-30 08:33N 38°37' W 010°06'1615.7
2015-Jul-30 07:33N 38°53' W 010°06'1616.1
2015-Jul-30 06:33N 39°09' W 010°02'  
2015-Jul-27 07:33N 50°35' E 000°24'1212.2
2015-Jul-27 06:33N 50°41' E 000°41'1212.3
2015-Jul-27 05:33N 50°48' E 000°57'1412.5
2015-Jul-27 04:28N 50°57' E 001°13'1213.2
2015-Jul-27 03:33N 51°05' E 001°28'1413.8
2015-Jul-27 02:33N 51°13' E 001°45'1413.7
2015-Jul-27 01:33N 51°26' E 001°55'1412.4
2015-Jul-27 00:26N 51°20' E 002°15'1112.8
2015-Jul-26 23:33N 51°23' E 002°33'1211.7
2015-Jul-26 22:34N 51°22' E 002°51'1312.9
2015-Jul-26 21:34N 51°22' E 003°12'3 3.2
2015-Jul-26 20:31N 51°19' E 003°14'0 0.0
2015-Jul-26 19:28N 51°19' E 003°14'0 0.0
2015-Jul-26 18:31N 51°19' E 003°14'0 0.0
2015-Jul-26 17:31N 51°19' E 003°14'0 0.0
2015-Jul-26 16:31N 51°19' E 003°14'0 0.0
2015-Jul-26 15:31N 51°19' E 003°14'0 0.0
2015-Jul-26 14:31N 51°19' E 003°14'0 0.0
2015-Jul-26 13:31N 51°19' E 003°14'0 0.0
2015-Jul-26 12:31N 51°19' E 003°14'0 0.0
2015-Jul-26 11:31N 51°19' E 003°14'0 0.0
2015-Jul-26 10:31N 51°19' E 003°14'0 0.3
2015-Jul-26 09:33N 51°19' E 003°14'2 1.6
2015-Jul-26 08:34N 51°20' E 003°13'1211.6
2015-Jul-26 07:34N 51°22' E 002°55'1010.3
2015-Jul-26 06:33N 51°29' E 002°42'13613.6
2015-Jul-25 20:31N 53°26' E 004°37'1313.8
2015-Jul-25 19:33N 53°32' E 004°57'1413.8
2015-Jul-25 18:33N 53°37' E 005°19'1313.4
2015-Jul-25 17:33N 53°41' E 005°40'1313.2
2015-Jul-25 16:32N 53°45' E 006°02'12 9.9
2015-Jul-25 15:20N 53°39' E 006°19'1011.9
2015-Jul-25 14:31N 53°36' E 006°34'1313.5
2015-Jul-25 13:33N 53°28' E 006°51'1211.7
2015-Jul-25 12:33N 53°20' E 007°05'3 1.7
2015-Jul-25 10:28N 53°20' E 007°11'0 0.0
2015-Jul-25 08:25N 53°20' E 007°11'0 0.0
2015-Jul-25 07:25N 53°20' E 007°11'0 0.0
2015-Jul-25 06:22N 53°20' E 007°11'0 0.0
2015-Jul-25 04:28N 53°20' E 007°11'0 0.0
2015-Jul-25 03:31N 53°20' E 007°11'0 0.0
2015-Jul-25 02:31N 53°20' E 007°11'0 0.0
2015-Jul-25 01:28N 53°20' E 007°11'0 0.0
2015-Jul-25 00:31N 53°20' E 007°11'0 0.0
2015-Jul-24 23:31N 53°20' E 007°11'0 0.0
2015-Jul-24 22:34N 53°20' E 007°11'0 0.0
2015-Jul-24 21:33N 53°20' E 007°11'6 5.8
2015-Jul-24 20:33N 53°19' E 007°01'1212.3
2015-Jul-24 19:33N 53°29' E 006°49'1212.4
2015-Jul-24 18:33N 53°37' E 006°32'1312.7
2015-Jul-24 17:33N 53°38' E 006°11'1313.0
2015-Jul-24 16:33N 53°37' E 005°49'9 8.8
2015-Jul-24 15:33N 53°35' E 005°35'9 8.8
2015-Jul-24 14:33N 53°32' E 005°21'9 9.3
2015-Jul-24 13:33N 53°29' E 005°06'10 9.7
2015-Jul-24 12:33N 53°25' E 004°51'10 9.7
2015-Jul-24 11:31N 53°19' E 004°38'2010.4
2015-Jul-24 09:33N 53°01' E 004°22'1110.7
2015-Jul-24 08:33N 52°51' E 004°15'1010.4
2015-Jul-24 07:33N 52°43' E 004°04'1010.4
2015-Jul-24 06:33N 52°35' E 003°52'1010.2
2015-Jul-24 05:33N 52°28' E 003°40'10 9.7
2015-Jul-24 04:33N 52°21' E 003°30'9 9.2
2015-Jul-24 03:32N 52°14' E 003°19'48 8.7
2015-Jul-23 22:04N 51°39' E 002°27'5 9.6
2015-Jul-23 21:32N 51°35' E 002°21'1010.0
2015-Jul-23 20:33N 51°28' E 002°11'1010.1
2015-Jul-23 19:33N 51°18' E 002°06'1010.2
2015-Jul-23 18:33N 51°11' E 001°55'1111.3
2015-Jul-23 17:33N 51°03' E 001°42'  

Dump ship's entire track history